createdAt,value
2022-09-12T00:01:28.672Z,83.83
2022-09-12T00:04:00.677Z,83.97
2022-09-12T00:06:30.927Z,83.86
2022-09-12T00:09:02.967Z,83.99
2022-09-12T00:11:31.551Z,84.38
2022-09-12T00:14:02.110Z,84.79
2022-09-12T00:16:34.490Z,84.71
2022-09-12T00:19:03.906Z,84.90
2022-09-12T00:21:34.358Z,85.19
2022-09-12T00:24:03.130Z,85.45
2022-09-12T00:26:31.823Z,85.45
2022-09-12T00:29:00.342Z,85.48
2022-09-12T00:31:29.038Z,85.63
2022-09-12T00:34:01.839Z,85.49
2022-09-12T00:36:31.276Z,85.66
2022-09-12T00:38:59.895Z,85.76
2022-09-12T00:41:31.370Z,85.61
2022-09-12T00:44:02.513Z,85.62
2022-09-12T00:46:37.291Z,85.63
2022-09-12T00:49:13.316Z,85.58
2022-09-12T00:51:44.741Z,85.61
2022-09-12T00:54:18.279Z,85.67
2022-09-12T00:56:48.218Z,85.68
2022-09-12T00:59:20.174Z,85.72
2022-09-12T01:01:51.506Z,85.59
2022-09-12T01:04:23.855Z,85.45
2022-09-12T01:06:53.293Z,85.41
2022-09-12T01:09:23.952Z,85.36
2022-09-12T01:11:55.439Z,85.44
2022-09-12T01:14:24.018Z,85.64
2022-09-12T01:16:52.806Z,85.75
2022-09-12T01:19:49.429Z,85.76
2022-09-12T01:22:35.120Z,85.71
2022-09-12T01:25:12.609Z,85.73
2022-09-12T01:27:51.919Z,85.83
2022-09-12T01:30:25.048Z,86.08
2022-09-12T01:33:06.939Z,86.22
2022-09-12T01:35:45.518Z,86.40
2022-09-12T01:38:29.149Z,86.39
2022-09-12T01:41:04.412Z,86.44
2022-09-12T01:43:38.077Z,86.50
2022-09-12T01:46:14.336Z,86.31
2022-09-12T01:48:49.079Z,86.29
2022-09-12T01:51:23.003Z,86.05
2022-09-12T01:53:55.710Z,86.09
2022-09-12T01:56:26.979Z,86.09
2022-09-12T01:59:00.165Z,86.33
2022-09-12T02:01:33.957Z,86.38
2022-09-12T02:04:09.075Z,86.44
2022-09-12T02:06:45.022Z,86.46
2022-09-12T02:09:20.357Z,86.48
2022-09-12T02:11:52.669Z,86.35
2022-09-12T02:14:24.237Z,86.40
2022-09-12T02:16:58.863Z,86.32
2022-09-12T02:19:32.185Z,86.21
2022-09-12T02:22:03.167Z,86.28
2022-09-12T02:24:35.007Z,86.23
2022-09-12T02:27:09.406Z,86.12
2022-09-12T02:29:38.132Z,85.92
2022-09-12T02:32:16.029Z,85.98
2022-09-12T02:34:52.499Z,86.06
2022-09-12T02:37:27.549Z,86.09
2022-09-12T02:39:57.199Z,86.05
2022-09-12T02:42:26.455Z,86.05
2022-09-12T02:44:57.337Z,85.97
2022-09-12T02:47:32.275Z,85.92
2022-09-12T02:50:00.879Z,85.94
2022-09-12T02:52:30.581Z,86.33
2022-09-12T02:55:00.685Z,86.29
2022-09-12T02:57:29.023Z,86.12
2022-09-12T03:00:02.320Z,86.06
2022-09-12T03:02:53.086Z,86.03
2022-09-12T03:05:26.329Z,85.93
2022-09-12T03:08:22.552Z,85.90
2022-09-12T03:11:08.396Z,85.87
2022-09-12T03:13:46.276Z,85.87
2022-09-12T03:16:19.467Z,85.96
2022-09-12T03:18:56.980Z,86.06
2022-09-12T03:21:29.901Z,86.12
2022-09-12T03:24:09.457Z,86.24
2022-09-12T03:26:43.765Z,86.13
2022-09-12T03:29:13.783Z,86.25
2022-09-12T03:31:50.546Z,86.35
2022-09-12T03:34:20.918Z,86.77
2022-09-12T03:36:50.038Z,86.96
2022-09-12T03:39:18.459Z,86.98
2022-09-12T03:41:46.720Z,86.90
2022-09-12T03:44:14.976Z,86.71
2022-09-12T03:46:43.257Z,86.73
2022-09-12T03:49:12.050Z,86.56
2022-09-12T03:51:43.109Z,86.46
2022-09-12T03:54:12.654Z,86.58
2022-09-12T03:56:41.667Z,86.74
2022-09-12T03:59:10.154Z,86.81
2022-09-12T04:01:38.884Z,86.98
2022-09-12T04:04:07.222Z,87.01
2022-09-12T04:06:35.681Z,87.41
2022-09-12T04:09:05.529Z,87.43
2022-09-12T04:11:35.963Z,87.40
2022-09-12T04:14:04.339Z,87.48
2022-09-12T04:16:33.461Z,87.38
2022-09-12T04:19:01.878Z,87.43
2022-09-12T04:21:30.989Z,87.58
2022-09-12T04:23:59.308Z,87.45
2022-09-12T04:26:29.901Z,87.38
2022-09-12T04:28:58.377Z,87.35
2022-09-12T04:31:27.312Z,87.36
2022-09-12T04:33:56.453Z,87.43
2022-09-12T04:36:25.580Z,87.38
2022-09-12T04:38:53.899Z,87.44
2022-09-12T04:41:24.403Z,87.71
2022-09-12T04:43:58.314Z,87.70
2022-09-12T04:46:27.573Z,87.74
2022-09-12T04:48:57.000Z,87.73
2022-09-12T04:51:28.433Z,87.70
2022-09-12T04:53:59.074Z,87.80
2022-09-12T04:56:28.971Z,87.97
2022-09-12T04:59:01.469Z,88.12
2022-09-12T05:01:31.257Z,88.20
2022-09-12T05:04:02.199Z,88.47
2022-09-12T05:06:32.642Z,88.38
2022-09-12T05:09:02.201Z,88.45
2022-09-12T05:11:53.081Z,88.37
2022-09-12T05:14:22.673Z,88.54
2022-09-12T05:16:51.128Z,88.45
2022-09-12T05:19:19.448Z,88.26
2022-09-12T05:21:47.747Z,88.12
2022-09-12T05:24:16.010Z,88.21
2022-09-12T05:26:44.356Z,88.26
2022-09-12T05:29:13.273Z,88.28
2022-09-12T05:31:43.082Z,88.27
2022-09-12T05:34:11.618Z,88.38
2022-09-12T05:36:39.905Z,88.35
2022-09-12T05:39:08.491Z,88.44
2022-09-12T05:41:37.145Z,88.24
2022-09-12T05:44:07.772Z,88.02
2022-09-12T05:46:39.189Z,88.25
2022-09-12T05:49:11.429Z,88.34
2022-09-12T05:51:42.448Z,88.33
2022-09-12T05:54:12.121Z,88.60
2022-09-12T05:56:42.126Z,88.47
2022-09-12T05:59:13.585Z,88.11
2022-09-12T06:01:42.109Z,87.85
2022-09-12T06:04:12.263Z,87.96
2022-09-12T06:06:43.536Z,88.22
2022-09-12T06:09:12.980Z,87.94
2022-09-12T06:11:42.072Z,87.90
2022-09-12T06:14:11.641Z,87.54
2022-09-12T06:16:40.726Z,87.54
2022-09-12T06:19:19.368Z,87.26
2022-09-12T06:21:48.420Z,86.91
2022-09-12T06:24:17.666Z,86.70
2022-09-12T06:26:46.994Z,86.29
2022-09-12T06:29:15.573Z,86.08
2022-09-12T06:31:44.861Z,85.87
2022-09-12T06:34:16.894Z,85.79
2022-09-12T06:36:47.383Z,85.57
2022-09-12T06:39:18.575Z,85.09
2022-09-12T06:41:47.405Z,84.82
2022-09-12T06:44:18.005Z,84.71
2022-09-12T06:46:46.325Z,84.52
2022-09-12T06:49:17.543Z,84.31
2022-09-12T06:51:45.879Z,83.84
2022-09-12T06:54:15.517Z,83.49
2022-09-12T06:56:44.720Z,83.23
2022-09-12T06:59:13.227Z,83.07
2022-09-12T07:01:42.363Z,82.99
2022-09-12T07:04:11.004Z,82.71
2022-09-12T07:06:42.183Z,82.38
2022-09-12T07:09:13.599Z,82.35
2022-09-12T07:11:43.521Z,81.81
2022-09-12T07:14:14.592Z,81.90
2022-09-12T07:16:43.286Z,81.33
2022-09-12T07:19:12.253Z,81.10
2022-09-12T07:21:42.557Z,80.96
2022-09-12T07:24:11.799Z,81.08
2022-09-12T07:26:42.203Z,81.35
2022-09-12T07:29:35.949Z,80.98
2022-09-12T07:32:05.648Z,80.52
2022-09-12T07:34:34.271Z,80.39
2022-09-12T07:37:04.204Z,80.18
2022-09-12T07:39:32.500Z,79.99
2022-09-12T07:42:01.542Z,80.35
2022-09-12T07:44:30.283Z,80.19
2022-09-12T07:46:59.209Z,80.00
2022-09-12T07:49:27.496Z,79.62
2022-09-12T07:51:55.879Z,78.54
2022-09-12T07:54:25.730Z,78.05
2022-09-12T07:56:54.005Z,78.02
2022-09-12T07:59:48.450Z,78.05
2022-09-12T08:02:17.136Z,78.75
2022-09-12T08:10:00.481Z,78.37
2022-09-12T08:12:29.381Z,77.84
2022-09-12T08:14:57.772Z,78.08
2022-09-12T08:17:26.132Z,77.40
2022-09-12T08:19:54.433Z,77.72
2022-09-12T08:22:22.911Z,77.18
2022-09-12T08:24:51.367Z,77.21
2022-09-12T08:27:21.160Z,77.85
2022-09-12T08:29:49.708Z,75.92
2022-09-12T08:32:18.032Z,76.55
2022-09-12T08:34:48.534Z,75.46
2022-09-12T08:37:16.852Z,76.02
2022-09-12T08:39:45.405Z,76.79
2022-09-12T08:42:24.474Z,76.79
2022-09-12T08:45:06.515Z,76.04
2022-09-12T08:47:37.713Z,76.21
2022-09-12T08:50:15.508Z,74.99
2022-09-12T08:52:51.991Z,75.10
2022-09-12T08:55:32.329Z,74.96
2022-09-12T08:58:03.295Z,75.29
2022-09-12T09:00:50.337Z,75.93
2022-09-12T09:03:33.788Z,75.20
2022-09-12T09:06:09.171Z,73.69
2022-09-12T09:08:48.122Z,74.52
2022-09-12T09:11:33.680Z,74.33
2022-09-12T09:14:36.748Z,74.37
2022-09-12T09:17:10.241Z,73.47
2022-09-12T09:19:48.803Z,71.51
2022-09-12T09:22:28.980Z,72.77
2022-09-12T09:25:02.699Z,73.22
2022-09-12T09:27:40.891Z,71.64
2022-09-12T09:30:16.496Z,71.85
2022-09-12T09:32:48.113Z,72.36
2022-09-12T09:35:20.027Z,72.74
2022-09-12T09:38:00.255Z,72.30
2022-09-12T09:40:37.301Z,71.68
2022-09-12T09:43:14.116Z,70.42
2022-09-12T09:45:47.310Z,71.58
2022-09-12T09:48:19.725Z,71.24
2022-09-12T09:50:50.681Z,70.93
2022-09-12T09:53:38.424Z,70.18
2022-09-12T09:56:12.819Z,70.35
2022-09-12T09:58:42.269Z,69.23
2022-09-12T10:01:18.145Z,68.26
2022-09-12T10:03:51.616Z,69.61
2022-09-12T10:06:27.023Z,69.88
2022-09-12T10:09:08.626Z,68.81
2022-09-12T10:11:42.563Z,68.96
2022-09-12T10:14:35.230Z,69.20
2022-09-12T10:17:23.711Z,70.29
2022-09-12T10:20:17.387Z,68.32
2022-09-12T10:22:42.098Z,69.38
2022-09-12T10:25:16.679Z,70.40
2022-09-12T10:27:44.991Z,68.43
2022-09-12T10:30:19.565Z,68.77
2022-09-12T10:32:51.853Z,69.61
2022-09-12T10:35:22.359Z,67.91
2022-09-12T10:37:56.718Z,67.89
2022-09-12T10:40:27.736Z,68.26
2022-09-12T10:42:57.791Z,66.64
2022-09-12T10:45:30.209Z,69.26
2022-09-12T10:48:06.784Z,66.84
2022-09-12T10:50:40.601Z,68.06
2022-09-12T10:53:20.337Z,70.05
2022-09-12T10:56:09.095Z,66.83
2022-09-12T10:58:49.626Z,67.08
2022-09-12T11:01:31.785Z,65.97
2022-09-12T11:04:18.956Z,66.42
2022-09-12T11:06:58.642Z,66.77
2022-09-12T11:09:36.127Z,65.79
2022-09-12T11:12:13.081Z,68.37
2022-09-12T11:14:58.250Z,67.62
2022-09-12T11:17:37.268Z,66.86
2022-09-12T11:20:24.179Z,67.71
2022-09-12T11:23:15.356Z,68.46
2022-09-12T11:25:50.448Z,67.30
2022-09-12T11:28:30.067Z,66.78
2022-09-12T11:31:24.748Z,67.17
2022-09-12T11:33:56.813Z,66.84
2022-09-12T11:36:35.284Z,69.04
2022-09-12T11:39:13.332Z,67.44
2022-09-12T11:41:44.661Z,67.06
2022-09-12T11:44:18.538Z,67.84
2022-09-12T11:46:51.723Z,66.88
2022-09-12T11:49:30.495Z,65.10
2022-09-12T11:52:07.012Z,65.82
2022-09-12T11:54:40.543Z,65.98
2022-09-12T11:57:14.726Z,66.14
2022-09-12T11:59:50.106Z,65.69
2022-09-12T12:02:28.272Z,65.31
2022-09-12T12:05:20.710Z,66.54
2022-09-12T12:07:54.563Z,66.10
2022-09-12T12:10:32.412Z,68.96
2022-09-12T12:13:03.402Z,67.29
2022-09-12T12:15:33.099Z,65.56
2022-09-12T12:18:03.590Z,65.91
2022-09-12T12:20:32.497Z,64.70
2022-09-12T12:23:02.255Z,65.02
2022-09-12T12:25:43.115Z,66.31
2022-09-12T12:28:11.593Z,65.24
2022-09-12T12:31:02.562Z,65.94
2022-09-12T12:34:27.585Z,64.82
2022-09-12T12:36:56.032Z,63.25
2022-09-12T12:40:04.147Z,65.21
2022-09-12T12:43:21.167Z,65.04
2022-09-12T12:46:10.807Z,64.69
2022-09-12T12:48:58.956Z,66.20
2022-09-12T12:51:44.498Z,65.66
2022-09-12T12:54:47.811Z,63.63
2022-09-12T12:57:20.873Z,64.76
2022-09-12T12:59:53.013Z,63.64
2022-09-12T13:02:31.866Z,65.96
2022-09-12T13:05:01.684Z,64.09
2022-09-12T13:07:34.782Z,96.69
2022-09-12T13:10:04.707Z,98.83
2022-09-12T13:12:36.695Z,97.41
2022-09-12T13:15:28.189Z,99.60
2022-09-12T13:18:02.488Z,97.81
2022-09-12T13:20:34.872Z,98.88
2022-09-12T13:23:03.319Z,101.35
2022-09-12T13:25:33.192Z,100.15
2022-09-12T13:28:08.056Z,103.09
2022-09-12T13:30:37.862Z,103.45
2022-09-12T13:33:20.692Z,101.10
2022-09-12T13:36:14.716Z,102.83
2022-09-12T13:38:54.441Z,104.69
2022-09-12T13:41:40.402Z,104.61
2022-09-12T13:44:13.566Z,103.50
2022-09-12T13:46:42.579Z,98.29
2022-09-12T13:49:22.103Z,97.00
2022-09-12T13:52:01.931Z,99.99
2022-09-12T13:54:31.965Z,96.00
2022-09-12T13:57:00.619Z,97.44
2022-09-12T13:59:28.865Z,101.90
2022-09-12T14:01:57.256Z,100.51
2022-09-12T14:04:45.361Z,104.14
2022-09-12T14:07:17.364Z,98.32
2022-09-12T14:09:47.557Z,97.43
2022-09-12T14:12:26.601Z,96.08
2022-09-12T14:14:55.141Z,96.90
2022-09-12T14:17:29.857Z,103.92
2022-09-12T14:20:02.099Z,99.00
2022-09-12T14:22:31.270Z,92.79
2022-09-12T14:25:00.973Z,94.85
2022-09-12T14:27:34.196Z,97.78
2022-09-12T14:30:07.674Z,93.99
2022-09-12T14:32:36.839Z,87.52
2022-09-12T14:35:18.247Z,90.27
2022-09-12T14:37:49.518Z,95.28
2022-09-12T14:40:20.449Z,89.67
2022-09-12T14:42:50.670Z,96.47
2022-09-12T14:45:25.357Z,86.11
2022-09-12T14:47:54.900Z,91.37
2022-09-12T14:50:27.816Z,85.11
2022-09-12T14:53:07.953Z,86.19
2022-09-12T14:55:44.013Z,87.65
2022-09-12T14:58:17.959Z,87.10
2022-09-12T15:00:57.916Z,85.42
2022-09-12T15:03:29.381Z,87.20
2022-09-12T15:06:00.262Z,81.56
2022-09-12T15:08:28.743Z,82.67
2022-09-12T15:10:57.254Z,84.57
2022-09-12T15:13:28.018Z,85.46
2022-09-12T15:15:58.262Z,86.69
2022-09-12T15:18:28.423Z,86.67
2022-09-12T15:21:02.525Z,82.74
2022-09-12T15:23:34.208Z,78.53
2022-09-12T15:26:03.035Z,81.72
2022-09-12T15:28:32.596Z,79.07
2022-09-12T15:31:07.147Z,82.98
2022-09-12T15:33:35.662Z,83.03
2022-09-12T15:36:13.004Z,85.38
2022-09-12T15:38:41.359Z,80.90
2022-09-12T15:41:14.080Z,79.63
2022-09-12T15:43:42.354Z,88.04
2022-09-12T15:46:12.608Z,86.97
2022-09-12T15:48:41.331Z,94.27
2022-09-12T15:51:15.579Z,93.42
2022-09-12T15:53:45.350Z,98.52
2022-09-12T15:56:14.044Z,99.11
2022-09-12T15:58:57.136Z,99.02
2022-09-12T16:01:27.149Z,100.32
2022-09-12T16:03:55.656Z,100.03
2022-09-12T16:06:25.509Z,99.17
2022-09-12T16:08:53.892Z,103.17
2022-09-12T16:11:25.050Z,100.26
2022-09-12T16:13:54.067Z,100.67
2022-09-12T16:16:22.407Z,101.07
2022-09-12T16:18:50.771Z,97.70
2022-09-12T16:21:19.532Z,95.95
2022-09-12T16:23:49.975Z,100.94
2022-09-12T16:26:18.735Z,97.01
2022-09-12T16:28:47.263Z,95.53
2022-09-12T16:31:17.166Z,95.38
2022-09-12T16:33:45.526Z,99.57
2022-09-12T16:36:15.634Z,98.80
2022-09-12T16:38:45.019Z,96.28
2022-09-12T16:41:15.902Z,97.57
2022-09-12T16:43:45.695Z,94.91
2022-09-12T16:46:16.012Z,97.95
2022-09-12T16:48:51.584Z,97.94
2022-09-12T16:51:22.451Z,99.09
2022-09-12T16:53:51.329Z,96.05
2022-09-12T16:56:21.095Z,100.32
2022-09-12T16:58:49.889Z,98.93
2022-09-12T17:01:20.334Z,99.16
2022-09-12T17:03:49.137Z,98.71
2022-09-12T17:06:19.922Z,99.30
2022-09-12T17:08:51.099Z,99.48
2022-09-12T17:11:22.646Z,102.46
2022-09-12T17:14:04.542Z,102.32
2022-09-12T17:16:34.236Z,104.75
2022-09-12T17:19:02.608Z,105.26
2022-09-12T17:21:30.912Z,105.39
2022-09-12T17:23:59.598Z,103.41
2022-09-12T17:26:29.402Z,105.92
2022-09-12T17:28:57.851Z,105.04
2022-09-12T17:31:26.712Z,106.08
2022-09-12T17:33:58.588Z,106.59
2022-09-12T17:36:27.908Z,105.73
2022-09-12T17:38:56.482Z,107.05
2022-09-12T17:41:27.417Z,105.92
2022-09-12T17:43:58.361Z,106.45
2022-09-12T17:46:28.548Z,106.10
2022-09-12T17:48:58.782Z,105.87
2022-09-12T17:51:29.109Z,105.43
2022-09-12T17:54:00.180Z,105.54
2022-09-12T17:56:30.946Z,103.25
2022-09-12T17:59:01.502Z,103.27
2022-09-12T18:01:48.682Z,103.73
2022-09-12T18:04:19.973Z,98.46
2022-09-12T18:06:49.281Z,96.75
2022-09-12T18:09:20.131Z,95.81
2022-09-12T18:11:49.293Z,100.33
2022-09-12T18:14:20.519Z,98.93
2022-09-12T18:16:49.484Z,97.66
2022-09-12T18:19:18.361Z,92.43
2022-09-12T18:21:47.062Z,92.08
2022-09-12T18:24:15.423Z,91.27
2022-09-12T18:26:44.999Z,89.05
2022-09-12T18:29:16.989Z,88.76
2022-09-12T18:31:47.812Z,90.98
2022-09-12T18:34:17.212Z,92.58
2022-09-12T18:36:47.377Z,90.65
2022-09-12T18:39:16.297Z,90.50
2022-09-12T18:41:44.955Z,87.81
2022-09-12T18:44:16.061Z,85.63
2022-09-12T18:46:44.427Z,86.99
2022-09-12T18:49:14.261Z,87.63
2022-09-12T18:51:42.707Z,86.32
2022-09-12T18:54:14.200Z,84.86
2022-09-12T18:56:44.077Z,84.48
2022-09-12T18:59:15.032Z,83.98
2022-09-12T19:01:44.472Z,84.06
2022-09-12T19:04:16.531Z,84.20
2022-09-12T19:06:46.798Z,84.55
2022-09-12T19:09:16.944Z,84.87
2022-09-12T19:11:50.046Z,83.87
2022-09-12T19:14:20.072Z,83.64
2022-09-12T19:16:48.498Z,83.93
2022-09-12T19:19:18.439Z,83.82
2022-09-12T19:21:47.399Z,82.04
2022-09-12T19:24:16.693Z,81.28
2022-09-12T19:26:45.186Z,81.07
2022-09-12T19:29:14.719Z,81.17
2022-09-12T19:31:43.348Z,81.07
2022-09-12T19:34:13.316Z,80.44
2022-09-12T19:36:45.923Z,80.08
2022-09-12T19:39:16.520Z,79.66
2022-09-12T19:41:45.500Z,79.45
2022-09-12T19:44:14.151Z,79.40
2022-09-12T19:46:42.711Z,79.34
2022-09-12T19:49:13.015Z,79.78
2022-09-12T19:51:43.987Z,79.74
2022-09-12T19:54:14.868Z,79.75
2022-09-12T19:56:43.534Z,79.57
2022-09-12T19:59:12.344Z,79.30
2022-09-12T20:01:40.836Z,79.46
2022-09-12T20:04:09.269Z,79.62
2022-09-12T20:06:37.583Z,79.74
2022-09-12T20:09:07.363Z,79.84
2022-09-12T20:11:35.748Z,79.54
2022-09-12T20:14:04.177Z,79.84
2022-09-12T20:16:33.638Z,79.91
2022-09-12T20:19:06.049Z,79.98
2022-09-12T20:21:36.112Z,80.21
2022-09-12T20:24:08.739Z,80.25
2022-09-12T20:26:37.508Z,80.02
2022-09-12T20:29:07.057Z,80.11
2022-09-12T20:31:36.144Z,80.57
2022-09-12T20:34:04.900Z,80.73
2022-09-12T20:36:33.893Z,80.81
2022-09-12T20:39:03.193Z,80.85
2022-09-12T20:41:35.545Z,80.64
2022-09-12T20:44:04.299Z,80.44
2022-09-12T20:46:33.162Z,80.36
2022-09-12T20:49:01.569Z,80.59
2022-09-12T20:51:30.582Z,80.72
2022-09-12T20:54:00.333Z,80.83
2022-09-12T20:56:29.637Z,80.89
2022-09-12T20:59:00.677Z,80.64
2022-09-12T21:01:31.411Z,80.95
2022-09-12T21:04:00.793Z,81.26
2022-09-12T21:06:29.492Z,81.37
2022-09-12T21:09:00.777Z,81.36
2022-09-12T21:11:29.963Z,81.29
2022-09-12T21:13:59.808Z,80.88
2022-09-12T21:16:28.576Z,80.07
2022-09-12T21:18:58.871Z,80.13
2022-09-12T21:21:28.067Z,80.54
2022-09-12T21:23:59.206Z,80.72
2022-09-12T21:26:28.006Z,80.66
2022-09-12T21:28:56.471Z,80.27
2022-09-12T21:31:27.016Z,80.56
2022-09-12T21:33:56.090Z,80.49
2022-09-12T21:36:25.379Z,80.75
2022-09-12T21:38:53.975Z,80.92
2022-09-12T21:41:22.330Z,80.71
2022-09-12T21:43:50.783Z,80.85
2022-09-12T21:46:19.594Z,80.65
2022-09-12T21:48:49.293Z,80.30
2022-09-12T21:51:18.205Z,79.97
2022-09-12T21:53:46.572Z,80.23
2022-09-12T21:56:14.971Z,79.88
2022-09-12T21:58:43.332Z,80.33
2022-09-12T22:01:13.133Z,80.13
2022-09-12T22:03:44.753Z,79.46
2022-09-12T22:06:16.391Z,79.52
2022-09-12T22:08:46.114Z,80.11
2022-09-12T22:11:15.060Z,80.24
2022-09-12T22:13:44.005Z,79.92
2022-09-12T22:16:12.861Z,79.75
2022-09-12T22:18:41.415Z,80.10
2022-09-12T22:21:13.036Z,80.38
2022-09-12T22:24:01.111Z,80.14
2022-09-12T22:26:30.117Z,80.27
2022-09-12T22:28:58.712Z,80.45
2022-09-12T22:31:28.189Z,80.59
2022-09-12T22:33:57.420Z,80.55
2022-09-12T22:36:30.516Z,80.30
2022-09-12T22:39:01.749Z,79.72
2022-09-12T22:41:30.204Z,79.45
2022-09-12T22:43:58.508Z,79.62
2022-09-12T22:46:27.596Z,79.70
2022-09-12T22:48:56.732Z,79.47
2022-09-12T22:51:25.101Z,79.69
2022-09-12T22:53:53.832Z,79.98
2022-09-12T22:56:23.856Z,80.01
2022-09-12T22:58:52.834Z,79.85
2022-09-12T23:01:21.417Z,79.41
2022-09-12T23:03:49.848Z,78.99
2022-09-12T23:06:19.027Z,78.93
2022-09-12T23:08:47.326Z,79.16
2022-09-12T23:11:17.503Z,79.17
2022-09-12T23:13:48.684Z,79.72
2022-09-12T23:16:20.038Z,79.78
2022-09-12T23:18:49.148Z,79.45
2022-09-12T23:21:21.253Z,79.04
2022-09-12T23:23:49.841Z,79.73
2022-09-12T23:26:20.477Z,80.06
2022-09-12T23:28:52.852Z,80.02
2022-09-12T23:31:22.022Z,80.06
2022-09-12T23:33:51.124Z,80.51
2022-09-12T23:36:19.569Z,80.59
2022-09-12T23:38:48.120Z,80.65
2022-09-12T23:41:18.236Z,80.17
2022-09-12T23:43:47.254Z,80.31
2022-09-12T23:46:18.688Z,79.85
2022-09-12T23:48:46.978Z,80.15
2022-09-12T23:51:15.964Z,79.85
2022-09-12T23:53:44.416Z,80.52
2022-09-12T23:56:14.966Z,80.30
2022-09-12T23:58:43.343Z,80.49
